Time;durP1;ratioP1;P1;durP2;ratioP2;P2;SDS_P1;SDS_P2;PMS_P1;PMS_P2;Temp;Humidity;BMP_temperature;BMP_pressure;BME280_temperature;BME280_humidity;BME280_pressure;Samples;Min_cycle;Max_cycle;Signal;HPM_P1;HPM_P2
2022/03/19 00:00:42;;;;;;;11.05;5.05;;;;;;;;;;6091768;23;20006;-44
2022/03/19 00:03:08;;;;;;;9.60;5.30;;;;;;;;;;6094255;23;20539;-46
2022/03/19 00:05:33;;;;;;;9.25;5.20;;;;;;;;;;6088584;23;20018;-48
2022/03/19 00:07:59;;;;;;;10.95;5.30;;;;;;;;;;6095543;23;20011;-51
2022/03/19 00:10:25;;;;;;;15.68;5.35;;;;;;;;;;6088514;23;20025;-44
2022/03/19 00:12:50;;;;;;;13.07;5.13;;;;;;;;;;6093706;23;20006;-44
2022/03/19 00:15:19;;;;;;;17.38;5.38;;;;;;;;;;6090654;23;20034;-47
2022/03/19 00:17:44;;;;;;;12.18;5.88;;;;;;;;;;6095493;23;20006;-47
2022/03/19 00:20:10;;;;;;;13.90;6.40;;;;;;;;;;6091175;23;20030;-46
2022/03/19 00:22:36;;;;;;;15.25;6.55;;;;;;;;;;6094235;23;20022;-48
2022/03/19 00:25:01;;;;;;;11.18;5.03;;;;;;;;;;6091760;23;20007;-47
2022/03/19 00:27:26;;;;;;;12.20;5.50;;;;;;;;;;6093359;23;20054;-44
2022/03/19 00:29:52;;;;;;;14.57;6.13;;;;;;;;;;6091597;23;20023;-48
2022/03/19 00:32:17;;;;;;;13.63;5.68;;;;;;;;;;6093269;23;20018;-47
2022/03/19 00:34:43;;;;;;;14.32;5.55;;;;;;;;;;6093070;23;20026;-44
2022/03/19 00:37:08;;;;;;;17.98;6.68;;;;;;;;;;6094633;23;20025;-47
2022/03/19 00:39:33;;;;;;;13.30;5.10;;;;;;;;;;6091075;23;20531;-44
2022/03/19 00:41:59;;;;;;;16.35;5.75;;;;;;;;;;6092963;23;20002;-47
2022/03/19 00:44:24;;;;;;;12.63;5.53;;;;;;;;;;6090905;23;20806;-46
2022/03/19 00:46:50;;;;;;;14.20;7.05;;;;;;;;;;6093855;23;20018;-46
2022/03/19 00:49:15;;;;;;;14.80;6.13;;;;;;;;;;6091830;23;20095;-46
2022/03/19 00:51:40;;;;;;;10.25;5.28;;;;;;;;;;6089896;23;20086;-47
2022/03/19 00:54:06;;;;;;;10.95;5.55;;;;;;;;;;6091552;23;20018;-46
2022/03/19 00:56:31;;;;;;;13.02;5.68;;;;;;;;;;6093976;23;20787;-46
2022/03/19 00:58:57;;;;;;;15.35;6.68;;;;;;;;;;6092279;23;20018;-45
2022/03/19 01:01:22;;;;;;;16.17;6.80;;;;;;;;;;6092292;23;20045;-49
2022/03/19 01:03:48;;;;;;;17.65;5.30;;;;;;;;;;6090153;23;20430;-47
2022/03/19 01:06:13;;;;;;;13.35;6.10;;;;;;;;;;6092637;23;20019;-44
2022/03/19 01:08:38;;;;;;;12.88;6.85;;;;;;;;;;6091502;23;20025;-45
2022/03/19 01:11:04;;;;;;;13.63;6.85;;;;;;;;;;6094796;23;20074;-46
2022/03/19 01:13:29;;;;;;;11.13;5.95;;;;;;;;;;6090608;23;20018;-46
2022/03/19 01:15:54;;;;;;;12.35;5.88;;;;;;;;;;6094185;23;20003;-47
2022/03/19 01:18:19;;;;;;;14.80;6.15;;;;;;;;;;6089505;23;20034;-44
2022/03/19 01:20:45;;;;;;;15.68;5.70;;;;;;;;;;6094741;23;20011;-45
2022/03/19 01:23:10;;;;;;;13.18;5.55;;;;;;;;;;6091215;23;20034;-53
2022/03/19 01:25:36;;;;;;;13.40;5.80;;;;;;;;;;6092474;23;19999;-44
2022/03/19 01:28:01;;;;;;;26.52;7.03;;;;;;;;;;6090900;23;20019;-45
2022/03/19 01:30:26;;;;;;;14.00;6.03;;;;;;;;;;6093366;23;20063;-46
2022/03/19 01:32:52;;;;;;;16.88;6.57;;;;;;;;;;6092504;23;20014;-46
2022/03/19 01:35:18;;;;;;;9.95;6.00;;;;;;;;;;6092652;23;20025;-46
2022/03/19 01:37:44;;;;;;;12.52;6.82;;;;;;;;;;6092849;23;20043;-46
2022/03/19 01:40:10;;;;;;;14.77;5.63;;;;;;;;;;6093150;23;20011;-47
2022/03/19 01:42:36;;;;;;;13.25;6.20;;;;;;;;;;6091547;23;20018;-46
2022/03/19 01:45:02;;;;;;;16.65;7.20;;;;;;;;;;6093642;23;20013;-46
2022/03/19 01:47:29;;;;;;;22.17;6.88;;;;;;;;;;6091235;23;20022;-46
2022/03/19 01:49:55;;;;;;;18.23;7.10;;;;;;;;;;6093444;23;20017;-46
2022/03/19 01:52:21;;;;;;;13.70;7.03;;;;;;;;;;6090575;23;20449;-45
2022/03/19 01:54:47;;;;;;;26.17;7.95;;;;;;;;;;6094333;23;20007;-45
2022/03/19 01:57:14;;;;;;;24.70;8.50;;;;;;;;;;6091735;23;20029;-45
2022/03/19 01:59:40;;;;;;;20.55;7.80;;;;;;;;;;6094095;23;20007;-46
2022/03/19 02:02:06;;;;;;;20.05;7.47;;;;;;;;;;6089810;23;20011;-44
2022/03/19 02:04:34;;;;;;;17.42;8.18;;;;;;;;;;6092403;23;20251;-46
2022/03/19 02:06:59;;;;;;;12.45;7.38;;;;;;;;;;6092690;23;20491;-45
2022/03/19 02:09:25;;;;;;;23.95;7.82;;;;;;;;;;6093865;23;20015;-45
2022/03/19 02:11:51;;;;;;;24.60;8.48;;;;;;;;;;6092421;23;20019;-46
2022/03/19 02:14:17;;;;;;;16.52;8.05;;;;;;;;;;6091534;23;20019;-45
2022/03/19 02:16:43;;;;;;;16.65;7.75;;;;;;;;;;6093073;23;20015;-45
2022/03/19 02:19:08;;;;;;;23.83;8.75;;;;;;;;;;6094496;23;20007;-46
2022/03/19 02:21:39;;;;;;;14.90;8.48;;;;;;;;;;6090851;23;20015;-45
2022/03/19 02:26:48;;;;;;;17.15;8.15;;;;;;;;;;6092842;23;20012;-46
2022/03/19 02:29:14;;;;;;;20.55;11.25;;;;;;;;;;6089272;23;20027;-48
2022/03/19 02:31:42;;;;;;;16.23;9.30;;;;;;;;;;6093811;23;20006;-47
2022/03/19 02:34:10;;;;;;;25.60;9.27;;;;;;;;;;6093778;23;20037;-47
2022/03/19 02:36:41;;;;;;;23.70;9.55;;;;;;;;;;6094265;23;20018;-44
2022/03/19 02:39:09;;;;;;;17.85;10.02;;;;;;;;;;6094990;23;20037;-45
2022/03/19 02:41:35;;;;;;;20.40;10.48;;;;;;;;;;6093688;23;20066;-45
2022/03/19 02:44:00;;;;;;;29.83;9.32;;;;;;;;;;6095076;23;20022;-44
2022/03/19 02:46:41;;;;;;;18.10;8.63;;;;;;;;;;6092642;23;20029;-44
2022/03/19 02:49:07;;;;;;;26.42;11.05;;;;;;;;;;6092552;23;20026;-45
2022/03/19 02:51:33;;;;;;;20.17;12.10;;;;;;;;;;6094717;23;20027;-44
2022/03/19 02:53:59;;;;;;;23.25;10.98;;;;;;;;;;6093737;23;20042;-45
2022/03/19 02:56:24;;;;;;;17.60;10.75;;;;;;;;;;6094373;23;20049;-45
2022/03/19 02:58:49;;;;;;;27.80;11.52;;;;;;;;;;6094041;23;20017;-45
2022/03/19 03:01:14;;;;;;;25.40;10.98;;;;;;;;;;6094286;23;20391;-45
2022/03/19 03:03:41;;;;;;;25.50;11.23;;;;;;;;;;6093564;23;20033;-45
2022/03/19 03:06:06;;;;;;;27.30;12.85;;;;;;;;;;6095799;23;20021;-45
2022/03/19 03:08:31;;;;;;;26.17;12.60;;;;;;;;;;6092034;23;20030;-45
2022/03/19 03:10:56;;;;;;;31.88;12.43;;;;;;;;;;6095422;23;20014;-46
2022/03/19 03:13:21;;;;;;;22.63;12.27;;;;;;;;;;6092162;23;20607;-45
2022/03/19 03:15:47;;;;;;;31.92;13.63;;;;;;;;;;6095681;23;20044;-46
2022/03/19 03:18:12;;;;;;;28.05;12.90;;;;;;;;;;6093365;23;20026;-45
2022/03/19 03:20:37;;;;;;;30.15;13.82;;;;;;;;;;6094963;23;20011;-44
2022/03/19 03:23:03;;;;;;;24.90;13.00;;;;;;;;;;6095392;23;20046;-44
2022/03/19 03:25:28;;;;;;;36.05;13.70;;;;;;;;;;6089910;23;20070;-46
2022/03/19 03:27:54;;;;;;;35.65;14.57;;;;;;;;;;6094975;23;20045;-46
2022/03/19 03:30:20;;;;;;;26.10;14.27;;;;;;;;;;6094273;23;20006;-44
2022/03/19 03:32:46;;;;;;;31.67;12.52;;;;;;;;;;6093082;23;20010;-44
2022/03/19 03:35:11;;;;;;;24.80;12.35;;;;;;;;;;6094431;23;20352;-48
2022/03/19 03:37:36;;;;;;;24.75;11.50;;;;;;;;;;6085559;23;20003;-44
2022/03/19 03:40:02;;;;;;;25.13;11.30;;;;;;;;;;6093540;23;20018;-47
2022/03/19 03:42:27;;;;;;;35.78;12.23;;;;;;;;;;6093679;23;20027;-44
2022/03/19 03:44:57;;;;;;;31.95;12.20;;;;;;;;;;6092312;23;20030;-45
2022/03/19 03:47:23;;;;;;;25.00;12.85;;;;;;;;;;6093811;23;20029;-44
2022/03/19 03:49:48;;;;;;;31.42;13.70;;;;;;;;;;6091993;23;20010;-45
2022/03/19 03:52:13;;;;;;;23.05;12.30;;;;;;;;;;6094232;23;20034;-45
2022/03/19 03:54:39;;;;;;;30.95;14.35;;;;;;;;;;6094339;23;20046;-44
2022/03/19 03:57:04;;;;;;;33.22;14.50;;;;;;;;;;6093530;23;20018;-46
2022/03/19 03:59:30;;;;;;;31.98;13.85;;;;;;;;;;6094388;23;22109;-45
2022/03/19 04:01:55;;;;;;;30.55;12.90;;;;;;;;;;6095219;23;20058;-44
2022/03/19 04:04:21;;;;;;;31.70;15.18;;;;;;;;;;6086120;23;20026;-44
2022/03/19 04:06:46;;;;;;;25.38;14.50;;;;;;;;;;6097369;23;20002;-45
2022/03/19 04:09:11;;;;;;;29.23;13.32;;;;;;;;;;6092711;23;20053;-45
2022/03/19 04:11:37;;;;;;;24.90;14.80;;;;;;;;;;6095834;23;20021;-45
2022/03/19 04:14:03;;;;;;;32.75;17.15;;;;;;;;;;6094154;23;20011;-44
2022/03/19 04:16:28;;;;;;;32.25;14.82;;;;;;;;;;6093259;23;20046;-45
2022/03/19 04:18:53;;;;;;;41.83;17.17;;;;;;;;;;6092820;23;20014;-46
2022/03/19 04:21:19;;;;;;;36.83;17.10;;;;;;;;;;6092834;23;20018;-45
2022/03/19 04:23:44;;;;;;;35.65;15.32;;;;;;;;;;6092946;23;20023;-44
2022/03/19 04:26:09;;;;;;;35.92;17.63;;;;;;;;;;6093142;23;20084;-44
2022/03/19 04:28:34;;;;;;;35.15;17.45;;;;;;;;;;6092337;23;20017;-44
2022/03/19 04:31:00;;;;;;;36.40;17.25;;;;;;;;;;6095306;23;20006;-44
2022/03/19 04:33:25;;;;;;;45.90;18.50;;;;;;;;;;6092492;23;20513;-46
2022/03/19 04:38:42;;;;;;;35.08;17.70;;;;;;;;;;6091304;23;20018;-44
2022/03/19 04:41:08;;;;;;;38.17;17.85;;;;;;;;;;6092763;23;20040;-45
2022/03/19 04:43:33;;;;;;;47.42;20.00;;;;;;;;;;6093596;23;20038;-46
2022/03/19 04:45:58;;;;;;;49.42;18.60;;;;;;;;;;6093705;23;20021;-45
2022/03/19 04:48:24;;;;;;;41.60;19.48;;;;;;;;;;6088654;23;20038;-44
2022/03/19 04:50:49;;;;;;;30.92;17.80;;;;;;;;;;6092951;23;20030;-44
2022/03/19 04:53:15;;;;;;;37.50;17.00;;;;;;;;;;6090865;23;20017;-46
2022/03/19 04:55:40;;;;;;;38.03;17.80;;;;;;;;;;6093865;23;20007;-45
2022/03/19 04:58:06;;;;;;;35.88;18.70;;;;;;;;;;6093589;23;20010;-44
2022/03/19 05:00:32;;;;;;;37.63;18.80;;;;;;;;;;6092452;23;20025;-45
2022/03/19 05:02:58;;;;;;;39.72;19.55;;;;;;;;;;6092820;23;20134;-46
2022/03/19 05:05:24;;;;;;;39.80;17.30;;;;;;;;;;6092092;23;20015;-45
2022/03/19 05:07:51;;;;;;;40.92;18.50;;;;;;;;;;6093115;23;20010;-45
2022/03/19 05:13:00;;;;;;;39.65;17.30;;;;;;;;;;6093867;23;20383;-44
2022/03/19 05:15:25;;;;;;;38.47;18.25;;;;;;;;;;6091683;23;20370;-44
2022/03/19 05:17:50;;;;;;;40.13;19.00;;;;;;;;;;6093319;23;20017;-46
2022/03/19 05:20:15;;;;;;;39.97;19.73;;;;;;;;;;6092662;23;20464;-48
2022/03/19 05:22:41;;;;;;;49.90;20.73;;;;;;;;;;6092855;23;20022;-44
2022/03/19 05:25:07;;;;;;;41.55;19.45;;;;;;;;;;6093390;23;20021;-45
2022/03/19 05:27:32;;;;;;;33.95;18.73;;;;;;;;;;6092256;23;20014;-44
2022/03/19 05:29:58;;;;;;;35.42;17.75;;;;;;;;;;6116008;23;20010;-44
2022/03/19 05:32:23;;;;;;;31.15;15.68;;;;;;;;;;6093225;23;20525;-45
2022/03/19 05:34:49;;;;;;;41.00;20.02;;;;;;;;;;6093166;23;20038;-45
2022/03/19 05:37:14;;;;;;;41.17;20.73;;;;;;;;;;6094806;23;20023;-44
2022/03/19 05:39:40;;;;;;;44.00;19.77;;;;;;;;;;6092233;23;20025;-46
2022/03/19 05:42:06;;;;;;;41.38;18.38;;;;;;;;;;6094493;23;20011;-44
2022/03/19 05:44:31;;;;;;;37.30;18.77;;;;;;;;;;6090023;23;20011;-44
2022/03/19 05:46:59;;;;;;;39.72;19.02;;;;;;;;;;6094589;23;20810;-45
2022/03/19 05:49:28;;;;;;;34.55;18.08;;;;;;;;;;6090641;23;20026;-45
2022/03/19 05:51:54;;;;;;;37.35;20.02;;;;;;;;;;6093471;23;20037;-45
2022/03/19 05:54:19;;;;;;;33.92;18.42;;;;;;;;;;6090918;23;20018;-45
2022/03/19 05:56:45;;;;;;;36.78;19.98;;;;;;;;;;6093919;23;20011;-46
2022/03/19 05:59:10;;;;;;;33.15;19.35;;;;;;;;;;6091595;23;20006;-46
2022/03/19 06:01:35;;;;;;;44.75;22.75;;;;;;;;;;6093716;23;20010;-47
2022/03/19 06:04:01;;;;;;;35.88;20.73;;;;;;;;;;6091916;23;20025;-45
2022/03/19 06:06:27;;;;;;;43.97;21.02;;;;;;;;;;6092260;23;20013;-44
2022/03/19 06:08:52;;;;;;;43.35;21.00;;;;;;;;;;6091410;23;20017;-45
2022/03/19 06:11:18;;;;;;;38.00;20.38;;;;;;;;;;6094067;23;20117;-47
2022/03/19 06:13:43;;;;;;;40.70;21.10;;;;;;;;;;6094053;23;20017;-45
2022/03/19 06:16:09;;;;;;;42.47;21.95;;;;;;;;;;6094297;23;20030;-45
2022/03/19 06:18:34;;;;;;;38.72;21.30;;;;;;;;;;6093500;23;20079;-45
2022/03/19 06:21:00;;;;;;;36.60;20.38;;;;;;;;;;6096339;23;20018;-45
2022/03/19 06:23:25;;;;;;;39.13;20.25;;;;;;;;;;6092566;23;20057;-45
2022/03/19 06:25:51;;;;;;;37.78;20.58;;;;;;;;;;6096370;23;20007;-45
2022/03/19 06:28:17;;;;;;;40.17;20.98;;;;;;;;;;6092437;23;20019;-45
2022/03/19 06:30:42;;;;;;;51.05;20.48;;;;;;;;;;6095113;23;20014;-44
2022/03/19 06:33:08;;;;;;;41.60;20.85;;;;;;;;;;6093674;23;20018;-44
2022/03/19 06:38:17;;;;;;;36.35;19.20;;;;;;;;;;6094486;23;20041;-46
2022/03/19 06:40:43;;;;;;;38.92;20.23;;;;;;;;;;6093767;23;20006;-46
2022/03/19 06:43:08;;;;;;;35.55;21.95;;;;;;;;;;6095939;23;20106;-45
2022/03/19 06:45:33;;;;;;;33.92;19.45;;;;;;;;;;6093968;23;20015;-45
2022/03/19 06:47:59;;;;;;;37.50;18.75;;;;;;;;;;6093079;23;20165;-46
2022/03/19 06:50:24;;;;;;;39.83;20.35;;;;;;;;;;6093332;23;20047;-45
2022/03/19 06:52:50;;;;;;;34.67;19.98;;;;;;;;;;6093737;23;20006;-45
2022/03/19 06:55:15;;;;;;;41.22;20.08;;;;;;;;;;6093218;23;20030;-46
2022/03/19 06:57:40;;;;;;;43.20;20.20;;;;;;;;;;6091950;23;20010;-45
2022/03/19 07:00:06;;;;;;;33.63;20.50;;;;;;;;;;6094956;23;20010;-46
2022/03/19 07:02:31;;;;;;;37.35;21.85;;;;;;;;;;6091659;23;20014;-44
2022/03/19 07:04:56;;;;;;;49.53;19.17;;;;;;;;;;6094852;23;20054;-46
2022/03/19 07:07:22;;;;;;;35.40;19.17;;;;;;;;;;6091127;23;20047;-46
2022/03/19 07:09:49;;;;;;;38.78;19.00;;;;;;;;;;6095236;23;20013;-45
2022/03/19 07:12:14;;;;;;;34.85;18.80;;;;;;;;;;6093935;23;20014;-46
2022/03/19 07:14:40;;;;;;;33.60;17.60;;;;;;;;;;6094029;23;20070;-45
2022/03/19 07:17:05;;;;;;;35.42;18.55;;;;;;;;;;6093012;23;20038;-46
2022/03/19 07:19:31;;;;;;;31.90;19.15;;;;;;;;;;6092945;23;20045;-46
2022/03/19 07:21:57;;;;;;;32.70;18.23;;;;;;;;;;6095167;23;20014;-45
2022/03/19 07:24:22;;;;;;;29.70;16.92;;;;;;;;;;6092579;23;20023;-47
2022/03/19 07:26:48;;;;;;;33.92;18.63;;;;;;;;;;6093888;23;20003;-46
2022/03/19 07:29:15;;;;;;;42.33;17.48;;;;;;;;;;6093043;23;20455;-45
2022/03/19 07:31:40;;;;;;;30.30;17.98;;;;;;;;;;6092035;23;20026;-44
2022/03/19 07:34:05;;;;;;;32.35;18.45;;;;;;;;;;6095043;23;20070;-45
2022/03/19 07:36:31;;;;;;;35.13;17.58;;;;;;;;;;6093263;23;20031;-45
2022/03/19 07:38:56;;;;;;;37.15;17.10;;;;;;;;;;6093941;23;20011;-45
2022/03/19 07:44:05;;;;;;;29.50;16.95;;;;;;;;;;6093563;23;20088;-45
2022/03/19 07:46:31;;;;;;;31.45;16.02;;;;;;;;;;6092272;23;20003;-45
2022/03/19 07:48:56;;;;;;;31.73;16.38;;;;;;;;;;6094704;23;20373;-45
2022/03/19 07:51:21;;;;;;;24.90;14.50;;;;;;;;;;6089750;23;20018;-45
2022/03/19 07:53:47;;;;;;;39.35;16.80;;;;;;;;;;6094896;23;20039;-47
2022/03/19 07:56:13;;;;;;;29.02;15.88;;;;;;;;;;6091922;23;20014;-46
2022/03/19 07:58:40;;;;;;;27.92;15.60;;;;;;;;;;6093494;23;20021;-45
2022/03/19 08:01:05;;;;;;;31.58;15.63;;;;;;;;;;6092696;23;20462;-46
2022/03/19 08:03:31;;;;;;;29.27;14.20;;;;;;;;;;6093011;23;20034;-45
2022/03/19 08:05:56;;;;;;;27.60;14.23;;;;;;;;;;6091807;23;20025;-45
2022/03/19 08:08:21;;;;;;;28.17;14.50;;;;;;;;;;6091852;23;20014;-45
2022/03/19 08:10:47;;;;;;;30.42;16.67;;;;;;;;;;6091234;23;20021;-44
2022/03/19 08:13:12;;;;;;;27.75;14.40;;;;;;;;;;6092414;23;20058;-47
2022/03/19 08:15:41;;;;;;;32.10;13.85;;;;;;;;;;6093232;23;20017;-46
2022/03/19 08:18:06;;;;;;;31.38;15.73;;;;;;;;;;6093144;23;20541;-46
2022/03/19 08:20:31;;;;;;;28.35;15.73;;;;;;;;;;6093176;23;20010;-46
2022/03/19 08:22:57;;;;;;;27.98;13.52;;;;;;;;;;6092802;23;20022;-45
2022/03/19 08:25:22;;;;;;;24.27;13.23;;;;;;;;;;6092999;23;20017;-44
2022/03/19 08:27:50;;;;;;;24.27;13.73;;;;;;;;;;6094475;23;20015;-45
2022/03/19 08:30:15;;;;;;;18.02;13.00;;;;;;;;;;6093541;23;20061;-45
2022/03/19 08:32:41;;;;;;;26.27;13.90;;;;;;;;;;6092869;23;20014;-45
2022/03/19 08:35:06;;;;;;;25.20;11.82;;;;;;;;;;6093049;23;20198;-46
2022/03/19 08:37:32;;;;;;;21.90;11.98;;;;;;;;;;6091295;23;20006;-45
2022/03/19 08:40:16;;;;;;;27.33;12.38;;;;;;;;;;6094985;23;20896;-45
2022/03/19 08:42:42;;;;;;;20.80;11.23;;;;;;;;;;6092023;23;20034;-46
2022/03/19 08:45:07;;;;;;;17.58;11.48;;;;;;;;;;6094182;23;20006;-46
2022/03/19 08:47:33;;;;;;;32.25;13.07;;;;;;;;;;6093065;23;20118;-45
2022/03/19 08:49:59;;;;;;;21.55;11.57;;;;;;;;;;6093003;23;20011;-46
2022/03/19 08:52:26;;;;;;;30.83;11.50;;;;;;;;;;6093390;23;20030;-45
2022/03/19 08:54:51;;;;;;;25.45;11.57;;;;;;;;;;6094107;23;20010;-47
2022/03/19 08:57:18;;;;;;;23.90;10.85;;;;;;;;;;6092375;23;20022;-46
2022/03/19 08:59:44;;;;;;;28.05;12.18;;;;;;;;;;6094870;23;20010;-46
2022/03/19 09:02:09;;;;;;;21.92;10.75;;;;;;;;;;6116093;23;20026;-46
2022/03/19 09:04:35;;;;;;;27.13;10.93;;;;;;;;;;6093401;23;20313;-46
2022/03/19 09:07:00;;;;;;;19.33;10.30;;;;;;;;;;6093269;23;20507;-48
2022/03/19 09:09:25;;;;;;;19.20;10.40;;;;;;;;;;6093484;23;20010;-45
2022/03/19 09:11:52;;;;;;;20.58;11.02;;;;;;;;;;6093824;23;20022;-46
2022/03/19 09:14:18;;;;;;;16.23;8.90;;;;;;;;;;6094123;23;20038;-47
2022/03/19 09:16:43;;;;;;;20.95;9.70;;;;;;;;;;6092495;23;20074;-46
2022/03/19 09:19:09;;;;;;;15.85;8.90;;;;;;;;;;6095397;23;20014;-46
2022/03/19 09:21:34;;;;;;;16.45;9.80;;;;;;;;;;6091241;23;20018;-46
2022/03/19 09:23:59;;;;;;;15.20;9.05;;;;;;;;;;6095013;23;20029;-45
2022/03/19 09:26:25;;;;;;;17.42;8.57;;;;;;;;;;6091945;23;20011;-46
2022/03/19 09:28:51;;;;;;;15.80;8.43;;;;;;;;;;6095359;23;20046;-45
2022/03/19 09:31:17;;;;;;;14.27;8.43;;;;;;;;;;6092142;23;20066;-44
2022/03/19 09:33:42;;;;;;;17.60;8.43;;;;;;;;;;6095438;23;20015;-46
2022/03/19 09:36:08;;;;;;;21.70;9.65;;;;;;;;;;6093196;23;20092;-48
2022/03/19 09:38:33;;;;;;;11.70;7.10;;;;;;;;;;6094148;23;20011;-47
2022/03/19 09:40:58;;;;;;;21.17;6.85;;;;;;;;;;6094000;23;20073;-47
2022/03/19 09:43:24;;;;;;;19.05;9.57;;;;;;;;;;6096172;23;20022;-44
2022/03/19 09:45:50;;;;;;;15.57;7.43;;;;;;;;;;6095372;23;20018;-47
2022/03/19 09:48:15;;;;;;;15.88;7.57;;;;;;;;;;6094987;23;20026;-48
2022/03/19 09:50:41;;;;;;;15.23;7.65;;;;;;;;;;6095529;23;20053;-46
2022/03/19 09:53:07;;;;;;;19.63;7.28;;;;;;;;;;6096611;23;20014;-46
2022/03/19 09:55:33;;;;;;;13.30;6.50;;;;;;;;;;6094035;23;20010;-46
2022/03/19 09:57:58;;;;;;;12.23;7.55;;;;;;;;;;6096822;23;20033;-44
2022/03/19 10:00:24;;;;;;;15.30;7.47;;;;;;;;;;6094489;23;20014;-47
2022/03/19 10:03:01;;;;;;;15.05;6.95;;;;;;;;;;6096272;23;20082;-47
2022/03/19 10:10:59;;;;;;;17.65;7.20;;;;;;;;;;6096924;23;20062;-46
2022/03/19 10:13:25;;;;;;;12.52;6.47;;;;;;;;;;6094364;23;20101;-46
2022/03/19 10:15:51;;;;;;;15.35;7.28;;;;;;;;;;6097078;23;20515;-49
2022/03/19 10:18:17;;;;;;;16.27;6.30;;;;;;;;;;6094210;23;20078;-46
2022/03/19 10:20:42;;;;;;;18.13;8.45;;;;;;;;;;6096501;23;20010;-47
2022/03/19 10:23:08;;;;;;;11.50;5.70;;;;;;;;;;6093177;23;20042;-47
2022/03/19 10:25:33;;;;;;;10.77;6.00;;;;;;;;;;6094638;23;20006;-46
2022/03/19 10:28:11;;;;;;;9.77;5.15;;;;;;;;;;6095276;23;20094;-46
2022/03/19 10:30:40;;;;;;;19.40;6.10;;;;;;;;;;6095877;23;20026;-46
2022/03/19 10:33:09;;;;;;;12.80;5.43;;;;;;;;;;6094499;23;20018;-47
2022/03/19 10:35:35;;;;;;;12.87;5.80;;;;;;;;;;6095329;23;20019;-46
2022/03/19 10:38:03;;;;;;;14.02;6.78;;;;;;;;;;6094898;23;20011;-46
2022/03/19 10:40:38;;;;;;;18.98;6.97;;;;;;;;;;6095368;23;20042;-45
2022/03/19 10:43:04;;;;;;;12.52;5.97;;;;;;;;;;6096005;23;20081;-44
2022/03/19 10:45:30;;;;;;;16.75;6.45;;;;;;;;;;6093081;23;22777;-46
2022/03/19 10:47:55;;;;;;;14.20;6.68;;;;;;;;;;6092150;23;20010;-46
2022/03/19 10:50:22;;;;;;;11.55;5.60;;;;;;;;;;6094536;23;20014;-46
2022/03/19 10:52:48;;;;;;;8.32;5.40;;;;;;;;;;6093961;23;20045;-45
2022/03/19 10:55:14;;;;;;;15.48;6.28;;;;;;;;;;6094653;23;20348;-44
2022/03/19 10:57:39;;;;;;;11.90;6.60;;;;;;;;;;6093104;23;20018;-46
2022/03/19 11:00:05;;;;;;;14.63;6.68;;;;;;;;;;6095788;23;20177;-47
2022/03/19 11:02:30;;;;;;;13.90;7.05;;;;;;;;;;6092481;23;20088;-46
2022/03/19 11:04:57;;;;;;;13.68;7.60;;;;;;;;;;6096036;23;20039;-45
2022/03/19 11:07:24;;;;;;;14.80;6.57;;;;;;;;;;6085480;23;20038;-45
2022/03/19 11:09:53;;;;;;;12.35;6.85;;;;;;;;;;6095730;23;20648;-47
2022/03/19 11:12:20;;;;;;;21.27;6.80;;;;;;;;;;6091456;23;20049;-46
2022/03/19 11:14:46;;;;;;;10.30;6.88;;;;;;;;;;6094305;23;20029;-45
2022/03/19 11:17:27;;;;;;;10.25;6.13;;;;;;;;;;6094891;23;20026;-47
2022/03/19 11:19:54;;;;;;;11.07;6.13;;;;;;;;;;6094794;23;20014;-45
2022/03/19 11:22:21;;;;;;;11.27;5.75;;;;;;;;;;6094565;23;20380;-45
2022/03/19 11:25:01;;;;;;;10.88;6.00;;;;;;;;;;6094710;23;20026;-50
2022/03/19 11:27:28;;;;;;;12.00;6.18;;;;;;;;;;6095119;23;20388;-45
2022/03/19 11:29:56;;;;;;;13.05;6.68;;;;;;;;;;6093810;23;20017;-45
2022/03/19 11:32:22;;;;;;;12.02;5.78;;;;;;;;;;6094874;23;20010;-45
2022/03/19 11:34:48;;;;;;;18.88;7.15;;;;;;;;;;6094077;23;20011;-47
2022/03/19 11:37:14;;;;;;;16.13;6.88;;;;;;;;;;6094736;23;20037;-47
2022/03/19 11:39:59;;;;;;;14.10;7.10;;;;;;;;;;6092894;23;20917;-46
2022/03/19 11:42:28;;;;;;;12.55;6.60;;;;;;;;;;6093092;23;20019;-48
2022/03/19 11:44:53;;;;;;;12.35;6.53;;;;;;;;;;6094625;23;20006;-44
2022/03/19 11:47:19;;;;;;;17.70;6.88;;;;;;;;;;6094076;23;20014;-46
2022/03/19 11:50:00;;;;;;;11.40;7.55;;;;;;;;;;6090951;23;20013;-46
2022/03/19 11:52:26;;;;;;;21.02;7.00;;;;;;;;;;6094336;23;20034;-48
2022/03/19 11:55:03;;;;;;;14.10;6.57;;;;;;;;;;6093319;23;20015;-48
2022/03/19 11:57:46;;;;;;;17.38;7.32;;;;;;;;;;6091228;23;20017;-47
2022/03/19 12:00:31;;;;;;;13.30;7.18;;;;;;;;;;6094345;23;20046;-48
2022/03/19 12:03:05;;;;;;;15.52;7.90;;;;;;;;;;6092650;23;20464;-45
2022/03/19 12:05:31;;;;;;;14.80;7.15;;;;;;;;;;6091561;23;20014;-46
2022/03/19 12:08:04;;;;;;;10.90;7.30;;;;;;;;;;6095562;23;20022;-47
2022/03/19 12:10:38;;;;;;;11.93;6.20;;;;;;;;;;6091286;23;20419;-46
2022/03/19 12:13:19;;;;;;;13.15;7.00;;;;;;;;;;6095467;23;20014;-49
2022/03/19 12:15:45;;;;;;;13.20;7.00;;;;;;;;;;6094790;23;20017;-50
2022/03/19 12:18:26;;;;;;;10.38;6.00;;;;;;;;;;6094087;23;20018;-45
2022/03/19 12:20:52;;;;;;;12.43;6.50;;;;;;;;;;6095751;23;20511;-46
2022/03/19 12:23:18;;;;;;;17.48;6.60;;;;;;;;;;6092944;23;20023;-47
2022/03/19 12:25:48;;;;;;;16.92;7.03;;;;;;;;;;6094937;23;20014;-46
2022/03/19 12:28:17;;;;;;;12.45;6.35;;;;;;;;;;6092357;23;20014;-45
2022/03/19 12:30:43;;;;;;;17.52;8.95;;;;;;;;;;6095773;23;20034;-50
2022/03/19 12:33:08;;;;;;;11.68;7.25;;;;;;;;;;6093620;23;20013;-48
2022/03/19 12:35:44;;;;;;;17.15;7.47;;;;;;;;;;6094457;23;20014;-47
2022/03/19 12:48:46;;;;;;;14.35;6.93;;;;;;;;;;6254828;22;1357667;-47
2022/03/19 12:51:21;;;;;;;12.65;6.60;;;;;;;;;;6214938;22;20012;-44
2022/03/19 12:53:46;;;;;;;15.85;7.50;;;;;;;;;;6222903;22;20019;-45
2022/03/19 12:56:32;;;;;;;13.50;7.30;;;;;;;;;;6218337;22;20024;-45
2022/03/19 12:58:58;;;;;;;20.35;7.88;;;;;;;;;;6221384;22;20076;-46
2022/03/19 13:01:27;;;;;;;12.38;7.93;;;;;;;;;;6218453;22;20016;-44
2022/03/19 13:03:57;;;;;;;14.30;7.50;;;;;;;;;;6220235;22;20027;-46
2022/03/19 13:06:25;;;;;;;13.95;7.05;;;;;;;;;;6221122;22;20008;-47
2022/03/19 13:08:51;;;;;;;15.53;7.43;;;;;;;;;;6220588;22;20080;-45
2022/03/19 13:11:16;;;;;;;14.77;8.57;;;;;;;;;;6221135;22;20226;-45
2022/03/19 13:13:43;;;;;;;15.50;7.97;;;;;;;;;;6220473;22;20386;-44
2022/03/19 13:16:08;;;;;;;27.15;7.53;;;;;;;;;;6221952;22;20016;-46
2022/03/19 13:18:37;;;;;;;15.88;7.95;;;;;;;;;;6218569;22;20468;-48
2022/03/19 13:21:10;;;;;;;13.63;7.57;;;;;;;;;;6221566;22;20008;-46
2022/03/19 13:23:36;;;;;;;13.48;6.20;;;;;;;;;;6219304;23;20016;-46
2022/03/19 13:26:02;;;;;;;23.90;8.60;;;;;;;;;;6220906;22;20004;-46
2022/03/19 13:28:28;;;;;;;14.00;7.35;;;;;;;;;;6219910;22;20032;-47
2022/03/19 13:30:54;;;;;;;15.15;8.05;;;;;;;;;;6220184;22;20012;-45
2022/03/19 13:33:22;;;;;;;14.88;7.30;;;;;;;;;;6220650;22;20009;-46
2022/03/19 13:35:47;;;;;;;14.93;7.93;;;;;;;;;;6219987;22;20042;-46
2022/03/19 13:38:16;;;;;;;11.95;7.13;;;;;;;;;;6220796;22;20055;-46
2022/03/19 13:40:42;;;;;;;14.63;7.20;;;;;;;;;;6220206;22;20012;-44
2022/03/19 13:43:08;;;;;;;17.10;8.43;;;;;;;;;;6221239;22;20236;-46
2022/03/19 13:45:33;;;;;;;14.77;8.20;;;;;;;;;;6219682;22;20012;-44
2022/03/19 13:48:02;;;;;;;16.33;8.20;;;;;;;;;;6217424;22;20380;-46
2022/03/19 13:50:27;;;;;;;16.92;8.45;;;;;;;;;;6213315;22;20024;-46
2022/03/19 13:52:59;;;;;;;16.15;8.30;;;;;;;;;;6211092;23;20020;-49
2022/03/19 13:55:27;;;;;;;19.77;9.43;;;;;;;;;;6213829;22;20497;-46
2022/03/19 13:57:59;;;;;;;16.00;8.00;;;;;;;;;;6210588;23;20375;-44
2022/03/19 14:00:31;;;;;;;16.20;7.68;;;;;;;;;;6213585;22;20017;-45
2022/03/19 14:03:05;;;;;;;12.35;7.28;;;;;;;;;;6213019;22;20012;-45
2022/03/19 14:05:32;;;;;;;15.52;7.30;;;;;;;;;;6211337;22;20100;-46
2022/03/19 14:07:59;;;;;;;16.73;8.07;;;;;;;;;;6214789;22;20009;-44
2022/03/19 14:10:34;;;;;;;12.88;6.30;;;;;;;;;;6211590;22;20012;-45
2022/03/19 14:13:05;;;;;;;14.40;6.47;;;;;;;;;;6214942;22;20013;-44
2022/03/19 14:15:41;;;;;;;15.40;6.85;;;;;;;;;;6212894;22;20771;-45
2022/03/19 14:18:07;;;;;;;11.32;6.60;;;;;;;;;;6213151;22;20405;-45
2022/03/19 14:20:32;;;;;;;16.05;6.55;;;;;;;;;;6213073;22;20008;-46
2022/03/19 14:22:57;;;;;;;13.15;6.40;;;;;;;;;;6213571;22;20016;-45
2022/03/19 14:25:23;;;;;;;16.17;6.80;;;;;;;;;;6212619;22;20044;-47
2022/03/19 14:27:48;;;;;;;11.20;6.90;;;;;;;;;;6213036;22;20008;-46
2022/03/19 14:30:14;;;;;;;11.95;6.70;;;;;;;;;;6213136;22;20021;-45
2022/03/19 14:32:40;;;;;;;15.27;6.85;;;;;;;;;;6213192;22;20019;-46
2022/03/19 14:35:05;;;;;;;10.65;6.82;;;;;;;;;;6214647;22;20072;-45
2022/03/19 14:37:31;;;;;;;13.70;7.03;;;;;;;;;;6211925;22;20036;-44
2022/03/19 14:39:56;;;;;;;9.35;6.03;;;;;;;;;;6212202;23;20008;-45
2022/03/19 14:42:22;;;;;;;14.50;6.22;;;;;;;;;;6211658;22;20237;-44
2022/03/19 14:44:47;;;;;;;15.35;7.32;;;;;;;;;;6213592;22;20075;-46
2022/03/19 14:47:12;;;;;;;12.45;7.57;;;;;;;;;;6212659;22;20095;-45
2022/03/19 14:49:38;;;;;;;12.60;6.40;;;;;;;;;;6212164;22;20021;-45